createdAt,value
2022-11-09T00:01:28.993Z,52.92
2022-11-09T00:06:32.037Z,53.30
2022-11-09T00:11:33.686Z,52.98
2022-11-09T00:16:35.327Z,53.13
2022-11-09T00:21:36.864Z,53.16
2022-11-09T00:26:38.337Z,52.72
2022-11-09T00:31:39.857Z,53.18
2022-11-09T00:36:42.194Z,52.99
2022-11-09T00:41:43.741Z,53.19
2022-11-09T00:46:45.435Z,52.99
2022-11-09T00:51:47.016Z,53.14
2022-11-09T00:56:48.814Z,53.49
2022-11-09T01:01:50.462Z,53.22
2022-11-09T01:06:53.324Z,53.30
2022-11-09T01:11:55.010Z,53.31
2022-11-09T01:16:57.356Z,53.34
2022-11-09T01:22:00.966Z,53.80
2022-11-09T01:27:03.339Z,54.04
2022-11-09T01:32:05.441Z,54.09
2022-11-09T01:37:07.013Z,53.96
2022-11-09T01:42:08.550Z,54.09
2022-11-09T01:47:24.239Z,54.03
2022-11-09T01:52:32.088Z,54.18
2022-11-09T01:57:38.303Z,54.14
2022-11-09T02:02:44.771Z,54.35
2022-11-09T02:07:46.692Z,54.15
2022-11-09T02:12:48.936Z,54.44
2022-11-09T02:17:53.545Z,54.38
2022-11-09T02:22:56.391Z,54.46
2022-11-09T02:27:57.970Z,54.67
2022-11-09T02:32:59.569Z,54.64
2022-11-09T02:38:01.718Z,54.43
2022-11-09T02:43:07.358Z,54.71
2022-11-09T02:48:09.005Z,54.50
2022-11-09T02:53:12.085Z,54.44
2022-11-09T02:58:17.867Z,54.52
2022-11-09T03:03:19.850Z,54.68
2022-11-09T03:08:21.890Z,54.64
2022-11-09T03:13:26.060Z,54.80
2022-11-09T03:18:27.923Z,54.65
2022-11-09T03:23:29.659Z,54.65
2022-11-09T03:28:32.023Z,54.63
2022-11-09T03:33:33.954Z,54.58
2022-11-09T03:38:35.873Z,54.81
2022-11-09T03:43:38.128Z,54.63
2022-11-09T03:48:39.701Z,54.44
2022-11-09T03:53:41.214Z,54.23
2022-11-09T03:58:42.742Z,54.71
2022-11-09T04:03:44.258Z,54.71
2022-11-09T04:08:50.959Z,54.59
2022-11-09T04:13:53.917Z,54.51
2022-11-09T04:18:55.391Z,54.57
2022-11-09T04:23:56.908Z,54.68
2022-11-09T04:28:58.365Z,54.51
2022-11-09T04:34:00.026Z,54.57
2022-11-09T04:39:01.665Z,54.31
2022-11-09T04:44:04.005Z,54.77
2022-11-09T04:49:05.558Z,54.47
2022-11-09T04:54:07.189Z,54.41
2022-11-09T04:59:08.797Z,54.63
2022-11-09T05:04:10.426Z,54.38
2022-11-09T05:09:12.131Z,54.27
2022-11-09T05:14:13.796Z,54.41
2022-11-09T05:19:15.345Z,54.08
2022-11-09T05:24:16.897Z,54.22
2022-11-09T05:29:18.369Z,54.17
2022-11-09T05:34:19.881Z,54.21
2022-11-09T05:39:21.379Z,54.33
2022-11-09T05:44:22.934Z,54.39
2022-11-09T05:49:24.706Z,54.50
2022-11-09T05:54:26.249Z,54.19
2022-11-09T05:59:27.746Z,54.51
2022-11-09T06:04:29.314Z,54.51
2022-11-09T06:09:30.868Z,54.52
2022-11-09T06:14:32.367Z,54.68
2022-11-09T06:19:33.920Z,54.25
2022-11-09T06:24:35.504Z,54.11
2022-11-09T06:29:37.072Z,54.06
2022-11-09T06:34:38.552Z,54.32
2022-11-09T06:39:40.094Z,54.43
2022-11-09T06:44:41.579Z,54.30
2022-11-09T06:49:43.139Z,54.56
2022-11-09T06:54:44.721Z,54.43
2022-11-09T06:59:46.260Z,54.75
2022-11-09T07:04:51.424Z,55.09
2022-11-09T07:09:52.966Z,54.96
2022-11-09T07:14:54.455Z,55.00
2022-11-09T07:19:55.945Z,55.26
2022-11-09T07:24:57.445Z,54.96
2022-11-09T07:29:58.934Z,55.04
2022-11-09T07:35:00.486Z,54.92
2022-11-09T07:40:02.178Z,55.25
2022-11-09T07:45:04.097Z,55.26
2022-11-09T07:50:06.094Z,54.95
2022-11-09T07:55:08.107Z,55.28
2022-11-09T08:00:11.115Z,54.93
2022-11-09T08:05:15.648Z,55.08
2022-11-09T08:10:17.275Z,55.45
2022-11-09T08:15:18.806Z,55.46
2022-11-09T08:20:20.394Z,55.14
2022-11-09T08:25:22.190Z,55.35
2022-11-09T08:30:24.643Z,55.17
2022-11-09T08:35:26.774Z,55.10
2022-11-09T08:40:28.904Z,55.29
2022-11-09T08:45:33.116Z,55.02
2022-11-09T08:50:37.736Z,54.96
2022-11-09T08:55:39.299Z,54.99
2022-11-09T09:00:40.858Z,55.17
2022-11-09T09:05:42.366Z,55.18
2022-11-09T09:10:43.898Z,55.21
2022-11-09T09:15:45.429Z,55.40
2022-11-09T09:20:46.945Z,55.11
2022-11-09T09:25:48.448Z,55.16
2022-11-09T09:30:51.153Z,55.11
2022-11-09T09:35:55.631Z,55.10
2022-11-09T09:40:59.606Z,55.46
2022-11-09T09:46:05.070Z,55.37
2022-11-09T09:51:18.744Z,55.17
2022-11-09T09:56:28.484Z,55.21
2022-11-09T10:01:42.042Z,55.28
2022-11-09T10:06:59.690Z,54.90
2022-11-09T10:12:20.475Z,55.02
2022-11-09T10:18:04.865Z,55.13
2022-11-09T10:23:24.794Z,55.42
2022-11-09T10:28:42.328Z,55.30
2022-11-09T10:34:00.222Z,55.33
2022-11-09T10:39:01.919Z,55.23
2022-11-09T10:44:21.768Z,55.05
2022-11-09T10:49:42.948Z,54.82
2022-11-09T10:55:24.306Z,54.78
2022-11-09T11:01:24.675Z,54.88
2022-11-09T11:06:44.620Z,54.45
2022-11-09T11:12:17.410Z,54.58
2022-11-09T11:17:37.932Z,54.34
2022-11-09T11:23:16.574Z,54.18
2022-11-09T11:28:49.227Z,54.25
2022-11-09T11:34:32.019Z,54.27
2022-11-09T11:40:07.771Z,54.05
2022-11-09T11:45:42.421Z,54.22
2022-11-09T11:51:08.727Z,54.09
2022-11-09T11:56:36.297Z,54.19
2022-11-09T12:02:15.320Z,53.99
2022-11-09T12:08:06.234Z,54.11
2022-11-09T12:13:54.183Z,54.20
2022-11-09T12:19:36.150Z,54.06
2022-11-09T12:25:15.027Z,54.05
2022-11-09T12:30:52.909Z,53.57
2022-11-09T12:36:41.490Z,53.53
2022-11-09T12:42:11.244Z,53.38
2022-11-09T12:47:40.239Z,53.69
2022-11-09T12:53:03.531Z,53.61
2022-11-09T12:58:35.060Z,53.51
2022-11-09T13:03:58.473Z,53.47
2022-11-09T13:09:24.437Z,53.47
2022-11-09T13:14:45.578Z,53.77
2022-11-09T13:20:53.887Z,53.49
2022-11-09T13:26:46.604Z,53.56
2022-11-09T13:32:12.530Z,53.64
2022-11-09T13:37:41.916Z,53.58
2022-11-09T13:43:07.993Z,53.49
2022-11-09T13:48:36.245Z,53.45
2022-11-09T13:53:56.607Z,53.38
2022-11-09T13:59:23.335Z,53.26
2022-11-09T14:04:44.273Z,53.20
2022-11-09T14:10:31.734Z,52.79
2022-11-09T14:16:03.101Z,52.83
2022-11-09T14:22:01.937Z,52.66
2022-11-09T14:27:23.456Z,52.48
2022-11-09T14:32:48.811Z,52.23
2022-11-09T14:38:24.874Z,52.30
2022-11-09T14:43:45.048Z,52.17
2022-11-09T14:49:05.052Z,51.88
2022-11-09T14:54:27.042Z,52.24
2022-11-09T14:59:47.957Z,52.12
2022-11-09T15:05:41.217Z,52.25
2022-11-09T15:11:01.261Z,52.01
2022-11-09T15:16:24.434Z,52.08
2022-11-09T15:21:44.631Z,51.88
2022-11-09T15:27:34.877Z,52.17
2022-11-09T15:32:55.090Z,52.24
2022-11-09T15:38:34.242Z,52.35
2022-11-09T15:43:54.418Z,52.61
2022-11-09T15:49:24.834Z,52.38
2022-11-09T15:54:46.915Z,52.53
2022-11-09T16:00:14.406Z,52.82
2022-11-09T16:05:38.033Z,52.78
2022-11-09T16:10:58.106Z,53.22
2022-11-09T16:16:18.539Z,52.75
2022-11-09T16:21:38.819Z,52.64
2022-11-09T16:26:58.858Z,53.06
2022-11-09T16:32:19.028Z,52.91
2022-11-09T16:37:40.474Z,53.08
2022-11-09T16:43:00.660Z,53.10
2022-11-09T16:48:21.127Z,53.06
2022-11-09T16:53:41.337Z,52.86
2022-11-09T16:59:01.671Z,53.03
2022-11-09T17:04:22.429Z,53.14
2022-11-09T17:09:42.511Z,53.33
2022-11-09T17:15:02.933Z,53.50
2022-11-09T17:20:24.038Z,53.47
2022-11-09T17:25:55.909Z,53.58
2022-11-09T17:31:18.662Z,53.48
2022-11-09T17:42:18.531Z,53.64
2022-11-09T17:47:38.707Z,54.01
2022-11-09T17:52:58.732Z,54.04
2022-11-09T17:58:19.284Z,54.35
2022-11-09T18:03:39.797Z,54.41
2022-11-09T18:09:34.314Z,54.37
2022-11-09T18:14:40.013Z,54.66
2022-11-09T18:20:00.305Z,54.66
2022-11-09T18:25:21.569Z,54.58
2022-11-09T18:30:41.939Z,54.32
2022-11-09T18:36:05.318Z,54.52
2022-11-09T18:41:26.309Z,54.63
2022-11-09T18:46:47.185Z,54.91
2022-11-09T18:52:07.154Z,54.94
2022-11-09T18:57:27.347Z,55.19
2022-11-09T19:02:47.680Z,55.19
2022-11-09T19:08:08.590Z,55.14
2022-11-09T19:13:28.556Z,55.39
2022-11-09T19:18:49.106Z,55.43
2022-11-09T19:24:13.414Z,55.59
2022-11-09T19:29:33.795Z,55.55
2022-11-09T19:34:54.108Z,55.61
2022-11-09T19:40:14.465Z,55.72
2022-11-09T19:45:42.692Z,55.75
2022-11-09T19:51:04.443Z,55.84
2022-11-09T19:56:26.749Z,55.83
2022-11-09T20:01:46.761Z,56.05
2022-11-09T20:07:06.877Z,55.78
2022-11-09T20:12:45.801Z,56.00
2022-11-09T20:18:06.409Z,56.22
2022-11-09T20:23:27.800Z,56.26
2022-11-09T20:28:48.327Z,56.27
2022-11-09T20:34:08.778Z,56.24
2022-11-09T20:39:29.285Z,56.48
2022-11-09T20:44:52.150Z,56.16
2022-11-09T20:50:12.817Z,56.46
2022-11-09T20:55:36.488Z,56.69
2022-11-09T21:01:04.489Z,56.90
2022-11-09T21:06:24.584Z,56.96
2022-11-09T21:12:03.699Z,56.75
2022-11-09T21:17:23.969Z,57.20
2022-11-09T21:23:02.714Z,57.13
2022-11-09T21:28:42.406Z,56.97
2022-11-09T21:34:02.872Z,57.31
2022-11-09T21:39:23.557Z,57.21
2022-11-09T21:44:43.863Z,57.10
2022-11-09T21:50:08.235Z,57.22
2022-11-09T21:55:31.578Z,57.25
2022-11-09T22:00:52.010Z,57.34
2022-11-09T22:06:14.258Z,57.27
2022-11-09T22:11:53.069Z,57.28
2022-11-09T22:17:13.651Z,57.61
2022-11-09T22:22:34.313Z,57.38
2022-11-09T22:27:55.534Z,57.22
2022-11-09T22:33:20.709Z,57.09
2022-11-09T22:38:43.729Z,57.14
2022-11-09T22:44:04.231Z,57.26
2022-11-09T22:49:24.683Z,57.29
2022-11-09T22:54:45.008Z,57.17
2022-11-09T23:00:06.122Z,57.39
2022-11-09T23:05:26.523Z,57.14
2022-11-09T23:10:54.942Z,57.33
2022-11-09T23:16:15.096Z,57.26
2022-11-09T23:21:37.286Z,57.51
2022-11-09T23:26:57.758Z,57.58
2022-11-09T23:32:17.857Z,57.52
2022-11-09T23:37:38.111Z,57.66
2022-11-09T23:43:05.343Z,57.94
2022-11-09T23:48:25.620Z,58.11
2022-11-09T23:53:45.868Z,58.23
2022-11-09T23:59:05.957Z,58.66
